createdAt,value
2017-06-14T00:00:11.652Z,34.07
2017-06-14T00:02:39.725Z,37.10
2017-06-14T00:05:09.108Z,39.93
2017-06-14T00:07:37.980Z,45.70
2017-06-14T00:10:08.661Z,44.83
2017-06-14T00:12:37.933Z,44.50
2017-06-14T00:15:07.715Z,40.87
2017-06-14T00:17:37.093Z,39.27
2017-06-14T00:20:07.889Z,39.77
2017-06-14T00:22:37.373Z,41.47
2017-06-14T00:25:06.112Z,42.13
2017-06-14T00:27:35.641Z,40.47
2017-06-14T00:30:04.101Z,41.90
2017-06-14T00:32:34.589Z,42.37
2017-06-14T00:35:02.834Z,42.67
2017-06-14T00:37:31.308Z,43.47
2017-06-14T00:40:00.733Z,42.90
2017-06-14T00:42:29.519Z,42.93
2017-06-14T00:44:58.357Z,44.30
2017-06-14T00:47:29.007Z,38.60
2017-06-14T00:49:57.853Z,37.90
2017-06-14T00:52:27.661Z,40.83
2017-06-14T00:54:58.285Z,43.07
2017-06-14T00:57:28.236Z,45.07
2017-06-14T00:59:58.627Z,45.00
2017-06-14T01:02:27.801Z,44.20
2017-06-14T01:04:56.944Z,45.97
2017-06-14T01:07:27.020Z,45.33
2017-06-14T01:09:56.957Z,50.13
2017-06-14T01:12:26.692Z,51.40
2017-06-14T01:14:56.644Z,51.87
2017-06-14T01:17:26.568Z,49.67
2017-06-14T01:19:56.329Z,47.20
2017-06-14T01:22:25.941Z,47.57
2017-06-14T01:24:55.053Z,49.90
2017-06-14T01:27:24.084Z,51.43
2017-06-14T01:29:53.024Z,53.53
2017-06-14T01:32:21.829Z,55.93
2017-06-14T01:34:52.308Z,55.00
2017-06-14T01:37:21.993Z,54.37
2017-06-14T01:39:51.064Z,56.57
2017-06-14T01:42:20.173Z,52.63
2017-06-14T01:44:49.312Z,52.00
2017-06-14T01:47:20.080Z,51.63
2017-06-14T01:49:49.659Z,53.53
2017-06-14T01:52:19.508Z,51.30
2017-06-14T01:54:48.692Z,51.60
2017-06-14T01:57:18.424Z,54.40
2017-06-14T01:59:47.944Z,55.47
2017-06-14T02:02:17.641Z,54.43
2017-06-14T02:04:48.401Z,53.90
2017-06-14T02:07:17.610Z,56.40
2017-06-14T02:09:47.571Z,54.03
2017-06-14T02:12:16.636Z,49.43
2017-06-14T02:14:45.128Z,52.10
2017-06-14T02:17:13.720Z,47.33
2017-06-14T02:19:42.168Z,47.70
2017-06-14T02:22:10.664Z,48.60
2017-06-14T02:24:39.408Z,46.13
2017-06-14T02:27:07.696Z,43.10
2017-06-14T02:29:35.904Z,42.47
2017-06-14T02:32:05.293Z,42.77
2017-06-14T02:34:33.968Z,40.63
2017-06-14T02:37:03.646Z,44.17
2017-06-14T02:39:33.849Z,41.70
2017-06-14T02:42:04.205Z,39.97
2017-06-14T02:44:34.540Z,42.10
2017-06-14T02:47:03.736Z,39.57
2017-06-14T02:49:33.386Z,41.40
2017-06-14T02:52:02.708Z,39.77
2017-06-14T02:54:30.824Z,39.13
2017-06-14T02:56:59.292Z,43.13
2017-06-14T02:59:27.556Z,42.83
2017-06-14T03:01:56.009Z,41.13
2017-06-14T03:04:24.284Z,39.90
2017-06-14T03:06:54.049Z,40.80
2017-06-14T03:09:22.829Z,37.93
2017-06-14T03:11:51.086Z,37.90
2017-06-14T03:14:19.386Z,41.80
2017-06-14T03:16:47.852Z,43.43
2017-06-14T03:19:16.836Z,43.27
2017-06-14T03:21:45.185Z,49.97
2017-06-14T03:24:13.433Z,45.57
2017-06-14T03:26:42.037Z,43.43
2017-06-14T03:29:11.009Z,43.10
2017-06-14T03:31:39.813Z,43.70
2017-06-14T03:34:07.908Z,45.03
2017-06-14T03:36:36.837Z,47.17
2017-06-14T03:39:06.160Z,46.17
2017-06-14T03:41:36.800Z,45.47
2017-06-14T03:44:06.052Z,42.77
2017-06-14T03:46:35.341Z,40.60
2017-06-14T03:49:05.196Z,38.80
2017-06-14T03:51:34.291Z,40.27
2017-06-14T03:54:03.576Z,40.90
2017-06-14T03:56:32.652Z,37.07
2017-06-14T03:59:00.927Z,40.00
2017-06-14T04:01:29.843Z,36.77
2017-06-14T04:03:58.920Z,37.93
2017-06-14T04:06:27.601Z,37.97
2017-06-14T04:08:56.179Z,38.27
2017-06-14T04:11:24.701Z,38.90
2017-06-14T04:13:53.359Z,38.23
2017-06-14T04:16:22.004Z,33.83
2017-06-14T04:18:51.706Z,31.97
2017-06-14T04:21:22.124Z,34.97
2017-06-14T04:23:50.361Z,33.07
2017-06-14T04:26:18.534Z,30.93
2017-06-14T04:28:47.544Z,30.20
2017-06-14T04:31:16.772Z,28.73
2017-06-14T04:33:47.496Z,25.73
2017-06-14T04:36:22.640Z,25.47
2017-06-14T04:38:52.563Z,25.17
2017-06-14T04:41:21.921Z,26.27
2017-06-14T04:43:49.981Z,24.23
2017-06-14T04:46:18.649Z,24.50
2017-06-14T04:48:47.229Z,24.33
2017-06-14T04:51:15.669Z,21.17
2017-06-14T04:53:44.344Z,21.43
2017-06-14T04:56:13.011Z,22.73
2017-06-14T04:58:41.173Z,19.83
2017-06-14T05:01:09.889Z,19.90
2017-06-14T05:03:37.956Z,19.70
2017-06-14T05:06:06.159Z,17.73
2017-06-14T05:08:34.712Z,20.20
2017-06-14T05:11:03.300Z,17.10
2017-06-14T05:13:31.761Z,17.50
2017-06-14T05:15:59.992Z,16.40
2017-06-14T05:18:28.093Z,17.57
2017-06-14T05:20:56.302Z,16.67
2017-06-14T05:23:24.565Z,14.20
2017-06-14T05:25:52.736Z,16.30
2017-06-14T05:28:21.329Z,17.63
2017-06-14T05:30:49.561Z,15.70
2017-06-14T05:33:17.658Z,16.80
2017-06-14T05:35:45.925Z,15.47
2017-06-14T05:38:14.289Z,15.53
2017-06-14T05:40:42.388Z,16.90
2017-06-14T05:43:11.729Z,14.60
2017-06-14T05:45:39.940Z,14.17
2017-06-14T05:48:08.024Z,14.55
2017-06-14T05:50:36.171Z,13.48
2017-06-14T05:53:04.422Z,14.20
2017-06-14T05:55:32.504Z,14.18
2017-06-14T05:58:00.727Z,13.65
2017-06-14T06:00:28.996Z,13.60
2017-06-14T06:02:57.180Z,12.18
2017-06-14T06:05:26.641Z,13.35
2017-06-14T06:07:55.432Z,12.32
2017-06-14T06:10:23.545Z,13.10
2017-06-14T06:12:51.604Z,14.53
2017-06-14T06:15:19.849Z,14.10
2017-06-14T06:17:47.936Z,14.93
2017-06-14T06:20:16.041Z,15.13
2017-06-14T06:22:44.629Z,14.83
2017-06-14T06:25:12.704Z,14.47
2017-06-14T06:27:40.809Z,14.57
2017-06-14T06:30:09.549Z,14.30
2017-06-14T06:32:38.309Z,14.07
2017-06-14T06:35:07.089Z,12.70
2017-06-14T06:37:35.898Z,13.75
2017-06-14T06:40:04.236Z,14.70
2017-06-14T06:42:32.853Z,12.20
2017-06-14T06:45:01.549Z,12.60
2017-06-14T06:47:30.061Z,11.70
2017-06-14T06:49:58.149Z,14.07
2017-06-14T06:52:26.372Z,13.88
2017-06-14T06:54:54.448Z,13.60
2017-06-14T06:57:22.509Z,14.05
2017-06-14T06:59:50.756Z,13.70
2017-06-14T07:02:18.973Z,14.07
2017-06-14T07:04:47.063Z,13.82
2017-06-14T07:07:15.261Z,14.20
2017-06-14T07:09:43.465Z,13.73
2017-06-14T07:12:12.146Z,14.10
2017-06-14T07:14:41.141Z,14.70
2017-06-14T07:17:09.306Z,15.93
2017-06-14T07:19:37.458Z,16.37
2017-06-14T07:22:06.249Z,16.10
2017-06-14T07:24:34.852Z,16.30
2017-06-14T07:27:04.211Z,17.00
2017-06-14T07:29:32.469Z,17.87
2017-06-14T07:32:00.580Z,17.40
2017-06-14T07:34:28.705Z,17.10
2017-06-14T07:36:56.969Z,16.63
2017-06-14T07:39:25.193Z,17.87
2017-06-14T07:41:53.280Z,16.60
2017-06-14T07:44:21.973Z,16.50
2017-06-14T07:46:50.075Z,16.87
2017-06-14T07:49:18.152Z,16.30
2017-06-14T07:51:47.801Z,15.80
2017-06-14T07:54:16.584Z,15.60
2017-06-14T07:56:44.970Z,16.70
2017-06-14T07:59:13.185Z,13.67
2017-06-14T08:01:41.260Z,15.23
2017-06-14T08:04:09.368Z,17.10
2017-06-14T08:06:37.576Z,16.70
2017-06-14T08:09:05.672Z,15.00
2017-06-14T08:11:33.756Z,16.07
2017-06-14T08:14:01.965Z,14.60
2017-06-14T08:16:30.044Z,15.73
2017-06-14T08:18:58.108Z,14.30
2017-06-14T08:21:26.325Z,16.20
2017-06-14T08:23:54.421Z,19.20
2017-06-14T08:26:22.489Z,20.17
2017-06-14T08:28:50.741Z,20.07
2017-06-14T08:31:18.837Z,22.43
2017-06-14T08:33:48.292Z,21.00
2017-06-14T08:36:16.905Z,21.37
2017-06-14T08:38:45.593Z,20.77
2017-06-14T08:41:14.200Z,21.47
2017-06-14T08:43:42.860Z,21.20
2017-06-14T08:46:11.469Z,20.10
2017-06-14T08:48:39.904Z,18.33
2017-06-14T08:51:08.645Z,21.30
2017-06-14T08:53:38.460Z,19.10
2017-06-14T08:56:06.565Z,20.00
2017-06-14T08:58:34.781Z,20.73
2017-06-14T09:01:03.365Z,20.77
2017-06-14T09:03:31.945Z,20.50
2017-06-14T09:06:00.905Z,21.00
2017-06-14T09:08:28.969Z,21.83
2017-06-14T09:10:58.188Z,22.73
2017-06-14T09:13:26.805Z,21.33
2017-06-14T09:15:55.275Z,21.70
2017-06-14T09:18:23.840Z,21.00
2017-06-14T09:20:52.553Z,20.70
2017-06-14T09:23:21.164Z,23.23
2017-06-14T09:25:49.889Z,19.90
2017-06-14T09:28:19.440Z,21.90
2017-06-14T09:30:48.124Z,22.27
2017-06-14T09:33:16.873Z,23.50
2017-06-14T09:35:46.544Z,23.27
2017-06-14T09:38:15.169Z,22.70
2017-06-14T09:40:43.566Z,23.83
2017-06-14T09:43:12.485Z,22.73
2017-06-14T09:45:41.093Z,23.27
2017-06-14T09:48:09.817Z,23.30
2017-06-14T09:50:39.484Z,23.10
2017-06-14T09:53:08.153Z,23.43
2017-06-14T09:55:36.228Z,23.17
2017-06-14T09:58:04.464Z,22.67
2017-06-14T10:00:32.961Z,22.20
2017-06-14T10:03:01.037Z,22.30
2017-06-14T10:05:29.248Z,23.07
2017-06-14T10:07:57.305Z,21.93
2017-06-14T10:10:25.356Z,21.50
2017-06-14T10:12:53.576Z,21.40
2017-06-14T10:15:21.681Z,23.70
2017-06-14T10:17:49.743Z,23.67
2017-06-14T10:20:19.229Z,22.03
2017-06-14T10:22:47.889Z,22.73
2017-06-14T10:25:16.673Z,21.47
2017-06-14T10:27:46.597Z,23.60
2017-06-14T10:30:15.208Z,22.00
2017-06-14T10:32:43.269Z,23.50
2017-06-14T10:35:11.545Z,23.00
2017-06-14T10:37:39.669Z,23.13
2017-06-14T10:40:07.741Z,24.53
2017-06-14T10:42:37.317Z,23.10
2017-06-14T10:45:05.529Z,22.87
2017-06-14T10:47:33.593Z,24.30
2017-06-14T10:50:01.810Z,23.90
2017-06-14T10:52:29.889Z,22.60
2017-06-14T10:54:57.957Z,22.80
2017-06-14T10:57:26.257Z,23.97
2017-06-14T10:59:54.424Z,23.10
2017-06-14T11:02:22.578Z,22.23
2017-06-14T11:04:51.409Z,23.80
2017-06-14T11:07:20.170Z,22.27
2017-06-14T11:09:48.953Z,22.03
2017-06-14T11:12:17.951Z,21.60
2017-06-14T11:14:46.731Z,22.20
2017-06-14T11:17:15.396Z,20.47
2017-06-14T11:19:43.673Z,20.13
2017-06-14T11:22:11.816Z,21.30
2017-06-14T11:24:39.952Z,22.77
2017-06-14T11:27:08.714Z,22.50
2017-06-14T11:29:36.845Z,22.93
2017-06-14T11:32:05.495Z,21.77
2017-06-14T11:34:34.272Z,24.20
2017-06-14T11:37:02.397Z,22.10
2017-06-14T11:39:32.100Z,22.60
2017-06-14T11:42:00.792Z,22.90
2017-06-14T11:44:29.513Z,20.60
2017-06-14T11:46:58.932Z,21.77
2017-06-14T11:49:27.953Z,21.70
2017-06-14T11:51:56.736Z,20.63
2017-06-14T11:54:25.592Z,23.30
2017-06-14T11:56:55.137Z,22.13
2017-06-14T11:59:23.757Z,20.60
2017-06-14T12:01:52.476Z,21.37
2017-06-14T12:04:21.213Z,22.40
2017-06-14T12:06:49.971Z,22.60
2017-06-14T12:09:18.810Z,22.57
2017-06-14T12:11:47.687Z,22.50
2017-06-14T12:14:15.914Z,23.47
2017-06-14T12:16:44.550Z,22.30
2017-06-14T12:19:13.373Z,20.90
2017-06-14T12:21:42.783Z,21.23
2017-06-14T12:24:11.628Z,20.97
2017-06-14T12:26:39.918Z,20.23
2017-06-14T12:29:08.064Z,21.07
2017-06-14T12:31:36.239Z,21.03
2017-06-14T12:34:04.524Z,21.37
2017-06-14T12:36:32.689Z,21.27
2017-06-14T12:39:00.836Z,18.63
2017-06-14T12:41:29.125Z,19.90
2017-06-14T12:43:57.425Z,17.53
2017-06-14T12:46:25.599Z,15.97
2017-06-14T12:48:54.034Z,16.40
2017-06-14T12:51:23.635Z,16.80
2017-06-14T12:53:51.829Z,17.80
2017-06-14T12:56:20.658Z,16.50
2017-06-14T12:58:49.092Z,15.30
2017-06-14T13:01:17.257Z,15.27
2017-06-14T13:03:45.552Z,16.70
2017-06-14T13:06:14.689Z,16.50
2017-06-14T13:08:42.901Z,18.00
2017-06-14T13:11:11.201Z,16.13
2017-06-14T13:13:39.365Z,17.87
2017-06-14T13:16:07.517Z,14.53
2017-06-14T13:18:35.865Z,17.83
2017-06-14T13:21:04.057Z,20.43
2017-06-14T13:23:32.232Z,18.53
2017-06-14T13:26:00.540Z,20.43
2017-06-14T13:28:28.747Z,19.13
2017-06-14T13:30:56.893Z,21.60
2017-06-14T13:33:25.185Z,20.23
2017-06-14T13:35:53.333Z,22.33
2017-06-14T13:38:22.419Z,23.17
2017-06-14T13:40:51.131Z,20.77
2017-06-14T13:43:19.776Z,21.57
2017-06-14T13:45:48.478Z,22.87
2017-06-14T13:48:17.292Z,22.77
2017-06-14T13:50:46.285Z,23.47
2017-06-14T13:53:14.789Z,24.67
2017-06-14T13:55:43.154Z,23.07
2017-06-14T13:58:12.547Z,24.87
2017-06-14T14:00:42.940Z,22.80
2017-06-14T14:03:13.754Z,24.47
2017-06-14T14:05:42.888Z,25.27
2017-06-14T14:08:12.069Z,25.00
2017-06-14T14:10:40.573Z,26.40
2017-06-14T14:13:10.732Z,26.53
2017-06-14T14:15:39.005Z,25.70
2017-06-14T14:18:08.714Z,28.10
2017-06-14T14:20:37.804Z,27.30
2017-06-14T14:23:05.965Z,29.90
2017-06-14T14:25:34.265Z,30.00
2017-06-14T14:28:04.043Z,30.57
2017-06-14T14:30:32.223Z,30.00
2017-06-14T14:33:01.055Z,32.77
2017-06-14T14:35:29.485Z,30.70
2017-06-14T14:37:57.653Z,31.70
2017-06-14T14:40:26.129Z,33.80
2017-06-14T14:42:55.079Z,32.40
2017-06-14T14:45:23.213Z,31.50
2017-06-14T14:47:52.169Z,32.80
2017-06-14T14:50:20.903Z,33.57
2017-06-14T14:52:49.468Z,34.33
2017-06-14T14:55:18.365Z,32.43
2017-06-14T14:57:46.516Z,34.30
2017-06-14T15:00:15.074Z,35.73
2017-06-14T15:02:44.638Z,37.80
2017-06-14T15:05:12.800Z,37.67
2017-06-14T15:07:40.969Z,37.73
2017-06-14T15:10:09.307Z,37.63
2017-06-14T15:12:37.483Z,40.40
2017-06-14T15:15:05.630Z,40.57
2017-06-14T15:17:33.915Z,40.90
2017-06-14T15:20:03.213Z,41.70
2017-06-14T15:22:31.385Z,41.83
2017-06-14T15:25:00.270Z,40.60
2017-06-14T15:27:28.979Z,41.27
2017-06-14T15:29:57.158Z,41.47
2017-06-14T15:32:25.849Z,41.63
2017-06-14T15:34:54.025Z,42.30
2017-06-14T15:37:22.201Z,43.03
2017-06-14T15:39:50.519Z,43.07
2017-06-14T15:42:18.693Z,38.77
2017-06-14T15:44:46.869Z,39.70
2017-06-14T15:47:15.643Z,42.10
2017-06-14T15:49:45.194Z,38.20
2017-06-14T15:52:13.355Z,39.20
2017-06-14T15:54:41.774Z,40.63
2017-06-14T15:57:09.909Z,39.40
2017-06-14T15:59:38.138Z,40.43
2017-06-14T16:02:06.797Z,40.00
2017-06-14T16:04:34.989Z,40.17
2017-06-14T16:07:03.132Z,41.60
2017-06-14T16:09:31.820Z,39.70
2017-06-14T16:12:00.382Z,40.33
2017-06-14T16:14:29.264Z,37.00
2017-06-14T16:16:58.293Z,37.90
2017-06-14T16:19:27.146Z,33.50
2017-06-14T16:21:55.726Z,31.37
2017-06-14T16:24:25.273Z,31.93
2017-06-14T16:26:54.128Z,30.43
2017-06-14T16:29:22.626Z,29.90
2017-06-14T16:31:51.441Z,29.57
2017-06-14T16:34:20.124Z,32.67
2017-06-14T16:36:48.916Z,31.50
2017-06-14T16:39:17.912Z,32.53
2017-06-14T16:41:46.802Z,32.90
2017-06-14T16:44:15.334Z,33.80
2017-06-14T16:46:45.684Z,30.97
2017-06-14T16:49:14.505Z,32.57
2017-06-14T16:51:43.118Z,32.90
2017-06-14T16:54:12.082Z,33.60
2017-06-14T16:56:41.078Z,33.40
2017-06-14T16:59:09.928Z,32.63
2017-06-14T17:01:39.380Z,30.50
2017-06-14T17:04:07.960Z,32.80
2017-06-14T17:06:36.739Z,31.97
2017-06-14T17:09:05.621Z,29.70
2017-06-14T17:11:34.220Z,30.93
2017-06-14T17:14:02.818Z,31.53
2017-06-14T17:16:31.706Z,30.30
2017-06-14T17:19:00.552Z,29.30
2017-06-14T17:21:29.925Z,29.20
2017-06-14T17:23:58.889Z,31.10
2017-06-14T17:26:27.744Z,29.27
2017-06-14T17:28:56.329Z,30.37
2017-06-14T17:31:25.150Z,30.50
2017-06-14T17:33:53.846Z,30.70
2017-06-14T17:36:22.562Z,30.87
2017-06-14T17:38:50.854Z,30.10
2017-06-14T17:41:19.033Z,30.73
2017-06-14T17:43:47.217Z,29.90
2017-06-14T17:46:15.528Z,29.93
2017-06-14T17:48:43.750Z,30.67
2017-06-14T17:51:12.229Z,30.10
2017-06-14T17:53:41.093Z,32.43
2017-06-14T17:56:09.294Z,30.67
2017-06-14T17:58:38.057Z,29.77
2017-06-14T18:01:06.975Z,29.10
2017-06-14T18:03:35.804Z,29.10
2017-06-14T18:06:04.368Z,28.33
2017-06-14T18:08:34.079Z,27.90
2017-06-14T18:11:02.294Z,29.73
2017-06-14T18:13:31.038Z,30.77
2017-06-14T18:15:59.378Z,30.07
2017-06-14T18:18:28.232Z,27.90
2017-06-14T18:20:56.429Z,29.60
2017-06-14T18:23:24.733Z,28.90
2017-06-14T18:25:52.889Z,28.90
2017-06-14T18:28:21.080Z,27.37
2017-06-14T18:30:49.390Z,28.60
2017-06-14T18:33:17.574Z,27.37
2017-06-14T18:35:45.729Z,28.23
2017-06-14T18:38:14.047Z,26.30
2017-06-14T18:40:42.225Z,26.43
2017-06-14T18:43:10.396Z,24.87
2017-06-14T18:45:38.691Z,24.80
2017-06-14T18:48:06.905Z,24.10
2017-06-14T18:50:35.084Z,23.50
2017-06-14T18:53:03.664Z,23.23
2017-06-14T18:55:32.077Z,22.77
2017-06-14T18:58:01.360Z,22.80
2017-06-14T19:00:30.354Z,22.07
2017-06-14T19:02:58.829Z,23.77
2017-06-14T19:05:27.129Z,22.07
2017-06-14T19:07:56.894Z,22.57
2017-06-14T19:10:25.443Z,22.53
2017-06-14T19:12:54.069Z,22.13
2017-06-14T19:15:22.865Z,22.23
2017-06-14T19:17:51.569Z,23.43
2017-06-14T19:20:19.997Z,24.30
2017-06-14T19:22:51.662Z,24.50
2017-06-14T19:25:20.432Z,24.97
2017-06-14T19:27:49.428Z,22.90
2017-06-14T19:30:18.223Z,23.77
2017-06-14T19:32:50.281Z,24.77
2017-06-14T19:35:20.741Z,24.40
2017-06-14T19:37:49.337Z,23.60
2017-06-14T19:40:17.946Z,23.43
2017-06-14T19:42:46.877Z,22.83
2017-06-14T19:45:15.694Z,22.23
2017-06-14T19:47:44.112Z,22.80
2017-06-14T19:50:12.977Z,21.80
2017-06-14T19:52:41.761Z,22.90
2017-06-14T19:55:09.941Z,22.80
2017-06-14T19:57:38.833Z,21.50
2017-06-14T20:00:07.209Z,22.70
2017-06-14T20:02:36.168Z,21.03
2017-06-14T20:05:05.266Z,20.97
2017-06-14T20:07:34.084Z,20.90
2017-06-14T20:10:02.301Z,21.20
2017-06-14T20:12:31.168Z,22.00
2017-06-14T20:14:59.977Z,20.93
2017-06-14T20:17:28.495Z,20.27
2017-06-14T20:19:58.170Z,20.70
2017-06-14T20:22:26.998Z,19.60
2017-06-14T20:25:02.116Z,21.13
2017-06-14T20:27:31.683Z,20.87
2017-06-14T20:30:00.474Z,19.70
2017-06-14T20:32:28.956Z,20.20
2017-06-14T20:34:57.096Z,19.20
2017-06-14T20:37:25.242Z,21.23
2017-06-14T20:39:54.117Z,21.03
2017-06-14T20:42:22.722Z,20.80
2017-06-14T20:44:51.977Z,19.53
2017-06-14T20:47:20.261Z,18.23
2017-06-14T20:49:48.401Z,20.93
2017-06-14T20:52:16.536Z,19.23
2017-06-14T20:54:44.836Z,21.67
2017-06-14T20:57:12.993Z,20.33
2017-06-14T20:59:41.139Z,21.27
2017-06-14T21:02:09.417Z,20.20
2017-06-14T21:04:38.300Z,21.20
2017-06-14T21:07:06.445Z,20.80
2017-06-14T21:09:35.173Z,20.83
2017-06-14T21:12:03.328Z,19.73
2017-06-14T21:14:31.453Z,20.67
2017-06-14T21:16:59.738Z,22.00
2017-06-14T21:19:27.877Z,19.07
2017-06-14T21:21:56.016Z,21.00
2017-06-14T21:24:24.296Z,19.77
2017-06-14T21:26:52.443Z,20.70
2017-06-14T21:29:20.600Z,21.47
2017-06-14T21:31:49.385Z,20.53
2017-06-14T21:34:18.035Z,23.97
2017-06-14T21:36:46.425Z,21.03
2017-06-14T21:39:15.221Z,21.00
2017-06-14T21:41:43.384Z,20.00
2017-06-14T21:44:12.072Z,20.70
2017-06-14T21:46:40.969Z,20.13
2017-06-14T21:49:09.683Z,21.80
2017-06-14T21:51:38.185Z,20.43
2017-06-14T21:54:07.948Z,21.17
2017-06-14T21:56:36.142Z,21.93
2017-06-14T21:59:05.633Z,21.60
2017-06-14T22:01:34.324Z,22.17
2017-06-14T22:04:02.901Z,22.47
2017-06-14T22:06:31.650Z,21.00
2017-06-14T22:09:00.488Z,21.87
2017-06-14T22:11:29.341Z,23.60
2017-06-14T22:13:57.904Z,21.50
2017-06-14T22:16:27.679Z,21.60
2017-06-14T22:18:56.425Z,22.30
2017-06-14T22:21:25.865Z,22.53
2017-06-14T22:23:54.660Z,22.30
2017-06-14T22:26:23.188Z,21.53
2017-06-14T22:28:52.708Z,21.43
2017-06-14T22:31:22.176Z,23.03
2017-06-14T22:33:50.831Z,22.53
2017-06-14T22:36:19.357Z,22.13
2017-06-14T22:38:48.212Z,20.90
2017-06-14T22:41:17.006Z,21.97
2017-06-14T22:43:45.682Z,21.20
2017-06-14T22:46:14.364Z,22.30
2017-06-14T22:48:42.888Z,22.57
2017-06-14T22:51:11.473Z,21.43
2017-06-14T22:53:40.400Z,22.27
2017-06-14T22:56:09.745Z,23.07
2017-06-14T22:58:37.907Z,21.63
2017-06-14T23:01:06.210Z,22.10
2017-06-14T23:03:34.381Z,22.67
2017-06-14T23:06:03.057Z,21.33
2017-06-14T23:08:31.500Z,22.27
2017-06-14T23:10:59.646Z,22.10
2017-06-14T23:13:27.801Z,23.33
2017-06-14T23:15:56.096Z,22.07
2017-06-14T23:18:24.245Z,21.90
2017-06-14T23:20:52.905Z,24.00
2017-06-14T23:23:21.818Z,23.20
2017-06-14T23:25:50.434Z,23.10
2017-06-14T23:28:19.083Z,20.70
2017-06-14T23:30:47.733Z,24.80
2017-06-14T23:33:17.456Z,21.97
2017-06-14T23:35:45.913Z,21.17
2017-06-14T23:38:14.225Z,22.57
2017-06-14T23:40:43.181Z,21.50
2017-06-14T23:43:11.333Z,21.70
2017-06-14T23:45:39.600Z,21.07
2017-06-14T23:48:07.735Z,21.87
2017-06-14T23:50:35.896Z,20.57
2017-06-14T23:53:04.169Z,21.87
2017-06-14T23:55:32.345Z,21.20
2017-06-14T23:58:00.512Z,23.37
